sensor_id;sensor_type;location;lat;lon;timestamp;temperature;humidity
15072;DHT22;7635;56.696;13.002;2023-05-07T00:01:35;2.70;99.90
15072;DHT22;7635;56.696;13.002;2023-05-07T00:04:02;2.60;99.90
15072;DHT22;7635;56.696;13.002;2023-05-07T00:06:29;2.50;99.90
15072;DHT22;7635;56.696;13.002;2023-05-07T00:08:56;2.50;99.90
15072;DHT22;7635;56.696;13.002;2023-05-07T00:11:24;2.50;99.90
15072;DHT22;7635;56.696;13.002;2023-05-07T00:13:52;2.50;99.90
15072;DHT22;7635;56.696;13.002;2023-05-07T00:16:18;2.50;99.90
15072;DHT22;7635;56.696;13.002;2023-05-07T00:18:45;2.40;99.90
15072;DHT22;7635;56.696;13.002;2023-05-07T00:21:12;2.40;99.90
15072;DHT22;7635;56.696;13.002;2023-05-07T00:23:39;2.40;99.90
15072;DHT22;7635;56.696;13.002;2023-05-07T00:26:05;2.30;99.90
15072;DHT22;7635;56.696;13.002;2023-05-07T00:28:33;2.20;99.90
15072;DHT22;7635;56.696;13.002;2023-05-07T00:31:00;2.20;99.90
15072;DHT22;7635;56.696;13.002;2023-05-07T00:33:27;2.20;99.90
15072;DHT22;7635;56.696;13.002;2023-05-07T00:35:53;2.20;99.90
15072;DHT22;7635;56.696;13.002;2023-05-07T00:38:20;2.20;99.90
15072;DHT22;7635;56.696;13.002;2023-05-07T00:40:47;2.10;99.90
15072;DHT22;7635;56.696;13.002;2023-05-07T00:43:14;2.10;99.90
15072;DHT22;7635;56.696;13.002;2023-05-07T00:45:42;2.00;99.90
15072;DHT22;7635;56.696;13.002;2023-05-07T00:48:08;2.00;99.90
15072;DHT22;7635;56.696;13.002;2023-05-07T00:50:35;2.00;99.90
15072;DHT22;7635;56.696;13.002;2023-05-07T00:53:02;2.00;99.90
15072;DHT22;7635;56.696;13.002;2023-05-07T00:55:28;1.90;99.90
15072;DHT22;7635;56.696;13.002;2023-05-07T00:57:55;1.90;99.90
15072;DHT22;7635;56.696;13.002;2023-05-07T01:00:22;1.90;99.90
15072;DHT22;7635;56.696;13.002;2023-05-07T01:02:51;1.80;99.90
15072;DHT22;7635;56.696;13.002;2023-05-07T01:05:19;1.80;99.90
15072;DHT22;7635;56.696;13.002;2023-05-07T01:07:47;1.80;99.90
15072;DHT22;7635;56.696;13.002;2023-05-07T01:10:14;1.70;99.90
15072;DHT22;7635;56.696;13.002;2023-05-07T01:12:42;1.70;99.90
15072;DHT22;7635;56.696;13.002;2023-05-07T01:15:09;1.60;99.90
15072;DHT22;7635;56.696;13.002;2023-05-07T01:17:36;1.60;99.90
15072;DHT22;7635;56.696;13.002;2023-05-07T01:20:06;1.60;99.90
15072;DHT22;7635;56.696;13.002;2023-05-07T01:22:35;1.60;99.90
15072;DHT22;7635;56.696;13.002;2023-05-07T01:25:04;1.60;99.90
15072;DHT22;7635;56.696;13.002;2023-05-07T01:27:31;1.50;99.90
15072;DHT22;7635;56.696;13.002;2023-05-07T01:29:58;1.50;99.90
15072;DHT22;7635;56.696;13.002;2023-05-07T01:32:29;1.50;99.90
15072;DHT22;7635;56.696;13.002;2023-05-07T01:34:57;1.50;99.90
15072;DHT22;7635;56.696;13.002;2023-05-07T01:37:25;1.50;99.90
15072;DHT22;7635;56.696;13.002;2023-05-07T01:39:53;1.50;99.90
15072;DHT22;7635;56.696;13.002;2023-05-07T01:42:21;1.50;99.90
15072;DHT22;7635;56.696;13.002;2023-05-07T01:44:48;1.50;99.90
15072;DHT22;7635;56.696;13.002;2023-05-07T01:47:16;1.50;99.90
15072;DHT22;7635;56.696;13.002;2023-05-07T01:49:43;1.50;99.90
15072;DHT22;7635;56.696;13.002;2023-05-07T01:52:10;1.50;99.90
15072;DHT22;7635;56.696;13.002;2023-05-07T01:54:37;1.50;99.90
15072;DHT22;7635;56.696;13.002;2023-05-07T01:57:07;1.50;99.90
15072;DHT22;7635;56.696;13.002;2023-05-07T01:59:33;1.50;99.90
15072;DHT22;7635;56.696;13.002;2023-05-07T02:02:00;1.40;99.90
15072;DHT22;7635;56.696;13.002;2023-05-07T02:04:27;1.40;99.90
15072;DHT22;7635;56.696;13.002;2023-05-07T02:06:53;1.40;99.90
15072;DHT22;7635;56.696;13.002;2023-05-07T02:09:21;1.40;99.90
15072;DHT22;7635;56.696;13.002;2023-05-07T02:11:48;1.40;99.90
15072;DHT22;7635;56.696;13.002;2023-05-07T02:14:16;1.40;99.90
15072;DHT22;7635;56.696;13.002;2023-05-07T02:16:43;1.40;99.90
15072;DHT22;7635;56.696;13.002;2023-05-07T02:19:09;1.40;99.90
15072;DHT22;7635;56.696;13.002;2023-05-07T02:21:36;1.30;99.90
15072;DHT22;7635;56.696;13.002;2023-05-07T02:24:03;1.30;99.90
15072;DHT22;7635;56.696;13.002;2023-05-07T02:26:30;1.30;99.90
15072;DHT22;7635;56.696;13.002;2023-05-07T02:28:57;1.30;99.90
15072;DHT22;7635;56.696;13.002;2023-05-07T02:31:25;1.30;99.90
15072;DHT22;7635;56.696;13.002;2023-05-07T02:33:51;1.30;99.90
15072;DHT22;7635;56.696;13.002;2023-05-07T02:36:18;1.30;99.90
15072;DHT22;7635;56.696;13.002;2023-05-07T02:38:45;1.30;99.90
15072;DHT22;7635;56.696;13.002;2023-05-07T02:41:11;1.30;99.90
15072;DHT22;7635;56.696;13.002;2023-05-07T02:43:38;1.30;99.90
15072;DHT22;7635;56.696;13.002;2023-05-07T02:46:06;1.30;99.90
15072;DHT22;7635;56.696;13.002;2023-05-07T02:48:34;1.30;99.90
15072;DHT22;7635;56.696;13.002;2023-05-07T02:51:01;1.30;99.90
15072;DHT22;7635;56.696;13.002;2023-05-07T02:53:28;1.30;99.90
15072;DHT22;7635;56.696;13.002;2023-05-07T02:55:56;1.30;99.90
15072;DHT22;7635;56.696;13.002;2023-05-07T02:58:23;1.30;99.90
15072;DHT22;7635;56.696;13.002;2023-05-07T03:00:50;1.30;99.90
15072;DHT22;7635;56.696;13.002;2023-05-07T03:03:17;1.30;99.90
15072;DHT22;7635;56.696;13.002;2023-05-07T03:05:45;1.20;99.90
15072;DHT22;7635;56.696;13.002;2023-05-07T03:08:12;1.20;99.90
15072;DHT22;7635;56.696;13.002;2023-05-07T03:10:39;1.20;99.90
15072;DHT22;7635;56.696;13.002;2023-05-07T03:13:05;1.30;99.90
15072;DHT22;7635;56.696;13.002;2023-05-07T03:15:32;1.30;99.90
15072;DHT22;7635;56.696;13.002;2023-05-07T03:17:59;1.30;99.90
15072;DHT22;7635;56.696;13.002;2023-05-07T03:20:25;1.30;99.90
15072;DHT22;7635;56.696;13.002;2023-05-07T03:22:53;1.30;99.90
15072;DHT22;7635;56.696;13.002;2023-05-07T03:25:20;1.30;99.90
15072;DHT22;7635;56.696;13.002;2023-05-07T03:27:47;1.30;99.90
15072;DHT22;7635;56.696;13.002;2023-05-07T03:30:14;1.30;99.90
15072;DHT22;7635;56.696;13.002;2023-05-07T03:32:40;1.40;99.90
15072;DHT22;7635;56.696;13.002;2023-05-07T03:35:07;1.40;99.90
15072;DHT22;7635;56.696;13.002;2023-05-07T03:37:34;1.40;99.90
15072;DHT22;7635;56.696;13.002;2023-05-07T03:40:02;1.40;99.90
15072;DHT22;7635;56.696;13.002;2023-05-07T03:42:29;1.40;99.90
15072;DHT22;7635;56.696;13.002;2023-05-07T03:44:56;1.40;99.90
15072;DHT22;7635;56.696;13.002;2023-05-07T03:47:22;1.40;99.90
15072;DHT22;7635;56.696;13.002;2023-05-07T03:49:49;1.50;99.90
15072;DHT22;7635;56.696;13.002;2023-05-07T03:52:18;1.50;99.90
15072;DHT22;7635;56.696;13.002;2023-05-07T03:54:49;1.50;99.90
15072;DHT22;7635;56.696;13.002;2023-05-07T03:57:17;1.60;99.90
15072;DHT22;7635;56.696;13.002;2023-05-07T03:59:43;1.60;99.90
15072;DHT22;7635;56.696;13.002;2023-05-07T04:02:10;1.60;99.90
15072;DHT22;7635;56.696;13.002;2023-05-07T04:04:37;1.60;99.90
15072;DHT22;7635;56.696;13.002;2023-05-07T04:07:04;1.60;99.90
15072;DHT22;7635;56.696;13.002;2023-05-07T04:09:30;1.60;99.90
15072;DHT22;7635;56.696;13.002;2023-05-07T04:11:57;1.70;99.90
15072;DHT22;7635;56.696;13.002;2023-05-07T04:14:25;1.70;99.90
15072;DHT22;7635;56.696;13.002;2023-05-07T04:16:52;1.70;99.90
15072;DHT22;7635;56.696;13.002;2023-05-07T04:19:18;1.80;99.90
15072;DHT22;7635;56.696;13.002;2023-05-07T04:21:45;1.80;99.90
15072;DHT22;7635;56.696;13.002;2023-05-07T04:24:12;1.80;99.90
15072;DHT22;7635;56.696;13.002;2023-05-07T04:26:39;1.90;99.90
15072;DHT22;7635;56.696;13.002;2023-05-07T04:29:06;1.90;99.90
15072;DHT22;7635;56.696;13.002;2023-05-07T04:31:34;2.00;99.90
15072;DHT22;7635;56.696;13.002;2023-05-07T04:34:00;2.00;99.90
15072;DHT22;7635;56.696;13.002;2023-05-07T04:36:27;2.10;99.90
15072;DHT22;7635;56.696;13.002;2023-05-07T04:38:55;2.10;99.90
15072;DHT22;7635;56.696;13.002;2023-05-07T04:41:21;2.20;99.90
15072;DHT22;7635;56.696;13.002;2023-05-07T04:43:48;2.20;99.90
15072;DHT22;7635;56.696;13.002;2023-05-07T04:46:15;2.30;99.90
15072;DHT22;7635;56.696;13.002;2023-05-07T04:48:43;2.30;99.90
15072;DHT22;7635;56.696;13.002;2023-05-07T04:51:09;2.40;99.90
15072;DHT22;7635;56.696;13.002;2023-05-07T04:53:37;2.40;99.90
15072;DHT22;7635;56.696;13.002;2023-05-07T04:56:04;2.50;99.90
15072;DHT22;7635;56.696;13.002;2023-05-07T04:58:30;2.60;99.90
15072;DHT22;7635;56.696;13.002;2023-05-07T05:00:57;2.60;99.90
15072;DHT22;7635;56.696;13.002;2023-05-07T05:03:24;2.70;99.90
15072;DHT22;7635;56.696;13.002;2023-05-07T05:05:52;2.80;99.90
15072;DHT22;7635;56.696;13.002;2023-05-07T05:08:19;2.90;99.90
15072;DHT22;7635;56.696;13.002;2023-05-07T05:10:45;3.10;99.90
15072;DHT22;7635;56.696;13.002;2023-05-07T05:13:14;3.20;99.90
15072;DHT22;7635;56.696;13.002;2023-05-07T05:15:40;3.40;99.90
15072;DHT22;7635;56.696;13.002;2023-05-07T05:18:07;3.50;99.90
15072;DHT22;7635;56.696;13.002;2023-05-07T05:20:34;3.60;99.90
15072;DHT22;7635;56.696;13.002;2023-05-07T05:23:02;3.70;99.90
15072;DHT22;7635;56.696;13.002;2023-05-07T05:25:28;3.80;99.90
15072;DHT22;7635;56.696;13.002;2023-05-07T05:27:55;4.00;99.90
15072;DHT22;7635;56.696;13.002;2023-05-07T05:30:22;4.20;99.90
15072;DHT22;7635;56.696;13.002;2023-05-07T05:32:48;4.50;99.90
15072;DHT22;7635;56.696;13.002;2023-05-07T05:35:15;4.70;99.90
15072;DHT22;7635;56.696;13.002;2023-05-07T05:37:42;5.00;99.90
15072;DHT22;7635;56.696;13.002;2023-05-07T05:40:11;5.30;99.90
15072;DHT22;7635;56.696;13.002;2023-05-07T05:42:38;5.70;99.90
15072;DHT22;7635;56.696;13.002;2023-05-07T05:45:06;6.00;99.90
15072;DHT22;7635;56.696;13.002;2023-05-07T05:47:32;6.40;99.90
15072;DHT22;7635;56.696;13.002;2023-05-07T05:49:59;6.70;99.90
15072;DHT22;7635;56.696;13.002;2023-05-07T05:52:26;7.00;99.90
15072;DHT22;7635;56.696;13.002;2023-05-07T05:54:53;7.40;99.90
15072;DHT22;7635;56.696;13.002;2023-05-07T05:57:21;7.70;99.90
15072;DHT22;7635;56.696;13.002;2023-05-07T05:59:48;8.10;99.90
15072;DHT22;7635;56.696;13.002;2023-05-07T06:02:15;8.20;99.90
15072;DHT22;7635;56.696;13.002;2023-05-07T06:04:41;8.40;99.90
15072;DHT22;7635;56.696;13.002;2023-05-07T06:07:08;8.60;99.90
15072;DHT22;7635;56.696;13.002;2023-05-07T06:09:35;8.80;99.90
15072;DHT22;7635;56.696;13.002;2023-05-07T06:12:01;9.10;99.90
15072;DHT22;7635;56.696;13.002;2023-05-07T06:14:29;9.30;99.90
15072;DHT22;7635;56.696;13.002;2023-05-07T06:16:56;9.60;99.90
15072;DHT22;7635;56.696;13.002;2023-05-07T06:19:23;9.90;99.90
15072;DHT22;7635;56.696;13.002;2023-05-07T06:21:52;10.00;99.90
15072;DHT22;7635;56.696;13.002;2023-05-07T06:24:18;10.10;99.90
15072;DHT22;7635;56.696;13.002;2023-05-07T06:26:45;10.40;99.90
15072;DHT22;7635;56.696;13.002;2023-05-07T06:29:12;10.70;99.90
15072;DHT22;7635;56.696;13.002;2023-05-07T06:31:40;11.10;99.90
15072;DHT22;7635;56.696;13.002;2023-05-07T06:34:07;11.30;99.90
15072;DHT22;7635;56.696;13.002;2023-05-07T06:36:34;11.50;99.90
15072;DHT22;7635;56.696;13.002;2023-05-07T06:39:00;11.80;99.90
15072;DHT22;7635;56.696;13.002;2023-05-07T06:41:27;12.10;99.90
15072;DHT22;7635;56.696;13.002;2023-05-07T06:43:54;12.20;99.90
15072;DHT22;7635;56.696;13.002;2023-05-07T06:46:20;12.40;99.90
15072;DHT22;7635;56.696;13.002;2023-05-07T06:48:48;12.60;99.90
15072;DHT22;7635;56.696;13.002;2023-05-07T06:51:15;12.90;99.90
15072;DHT22;7635;56.696;13.002;2023-05-07T06:53:42;13.30;99.90
15072;DHT22;7635;56.696;13.002;2023-05-07T06:56:08;13.40;99.90
15072;DHT22;7635;56.696;13.002;2023-05-07T06:58:35;13.70;99.90
15072;DHT22;7635;56.696;13.002;2023-05-07T07:01:02;13.90;99.90
15072;DHT22;7635;56.696;13.002;2023-05-07T07:03:29;14.00;99.90
15072;DHT22;7635;56.696;13.002;2023-05-07T07:05:57;14.20;99.90
15072;DHT22;7635;56.696;13.002;2023-05-07T07:08:24;14.40;99.90
15072;DHT22;7635;56.696;13.002;2023-05-07T07:10:50;14.60;99.90
15072;DHT22;7635;56.696;13.002;2023-05-07T07:13:17;14.90;99.90
15072;DHT22;7635;56.696;13.002;2023-05-07T07:15:44;15.10;99.90
15072;DHT22;7635;56.696;13.002;2023-05-07T07:18:11;15.40;99.90
15072;DHT22;7635;56.696;13.002;2023-05-07T07:20:38;15.60;99.90
15072;DHT22;7635;56.696;13.002;2023-05-07T07:23:06;15.80;99.90
15072;DHT22;7635;56.696;13.002;2023-05-07T07:25:32;15.90;99.90
15072;DHT22;7635;56.696;13.002;2023-05-07T07:27:59;16.00;99.90
15072;DHT22;7635;56.696;13.002;2023-05-07T07:30:26;16.40;99.90
15072;DHT22;7635;56.696;13.002;2023-05-07T07:32:53;16.70;99.90
15072;DHT22;7635;56.696;13.002;2023-05-07T07:35:20;16.80;99.00
15072;DHT22;7635;56.696;13.002;2023-05-07T07:37:48;17.10;99.90
15072;DHT22;7635;56.696;13.002;2023-05-07T07:40:17;17.20;99.60
15072;DHT22;7635;56.696;13.002;2023-05-07T07:42:43;17.30;99.00
15072;DHT22;7635;56.696;13.002;2023-05-07T07:45:10;17.30;98.50
15072;DHT22;7635;56.696;13.002;2023-05-07T07:47:37;17.30;97.90
15072;DHT22;7635;56.696;13.002;2023-05-07T07:50:05;17.40;98.90
15072;DHT22;7635;56.696;13.002;2023-05-07T07:52:32;17.40;98.30
15072;DHT22;7635;56.696;13.002;2023-05-07T07:54:59;17.40;97.10
15072;DHT22;7635;56.696;13.002;2023-05-07T07:57:27;17.40;97.50
15072;DHT22;7635;56.696;13.002;2023-05-07T07:59:53;17.40;97.00
15072;DHT22;7635;56.696;13.002;2023-05-07T08:02:20;17.10;95.40
15072;DHT22;7635;56.696;13.002;2023-05-07T08:04:47;17.20;97.00
15072;DHT22;7635;56.696;13.002;2023-05-07T08:07:14;17.30;97.10
15072;DHT22;7635;56.696;13.002;2023-05-07T08:09:40;17.50;97.00
15072;DHT22;7635;56.696;13.002;2023-05-07T08:12:07;17.80;96.60
15072;DHT22;7635;56.696;13.002;2023-05-07T08:14:35;17.80;96.50
15072;DHT22;7635;56.696;13.002;2023-05-07T08:17:03;17.90;95.70
15072;DHT22;7635;56.696;13.002;2023-05-07T08:19:29;18.10;96.30
15072;DHT22;7635;56.696;13.002;2023-05-07T08:21:56;18.20;95.40
15072;DHT22;7635;56.696;13.002;2023-05-07T08:24:23;18.50;95.80
15072;DHT22;7635;56.696;13.002;2023-05-07T08:26:49;18.60;95.60
15072;DHT22;7635;56.696;13.002;2023-05-07T08:29:16;18.90;96.10
15072;DHT22;7635;56.696;13.002;2023-05-07T08:31:44;19.00;95.10
15072;DHT22;7635;56.696;13.002;2023-05-07T08:34:11;19.20;95.90
15072;DHT22;7635;56.696;13.002;2023-05-07T08:36:37;19.20;94.30
15072;DHT22;7635;56.696;13.002;2023-05-07T08:39:04;19.30;94.90
15072;DHT22;7635;56.696;13.002;2023-05-07T08:41:31;19.00;94.40
15072;DHT22;7635;56.696;13.002;2023-05-07T08:43:59;19.20;94.40
15072;DHT22;7635;56.696;13.002;2023-05-07T08:46:30;19.60;95.60
15072;DHT22;7635;56.696;13.002;2023-05-07T08:48:59;19.70;94.50
15072;DHT22;7635;56.696;13.002;2023-05-07T08:51:25;19.90;94.40
15072;DHT22;7635;56.696;13.002;2023-05-07T08:53:52;19.70;93.80
15072;DHT22;7635;56.696;13.002;2023-05-07T08:56:19;19.90;93.90
15072;DHT22;7635;56.696;13.002;2023-05-07T08:58:47;20.30;95.10
15072;DHT22;7635;56.696;13.002;2023-05-07T09:01:15;20.70;95.30
15072;DHT22;7635;56.696;13.002;2023-05-07T09:03:44;20.70;93.30
15072;DHT22;7635;56.696;13.002;2023-05-07T09:06:13;21.00;93.90
15072;DHT22;7635;56.696;13.002;2023-05-07T09:08:40;21.20;93.30
15072;DHT22;7635;56.696;13.002;2023-05-07T09:11:07;21.30;93.20
15072;DHT22;7635;56.696;13.002;2023-05-07T09:13:33;21.00;92.20
15072;DHT22;7635;56.696;13.002;2023-05-07T09:16:10;21.10;92.90
15072;DHT22;7635;56.696;13.002;2023-05-07T09:18:41;20.90;93.70
15072;DHT22;7635;56.696;13.002;2023-05-07T09:21:10;20.90;93.30
15072;DHT22;7635;56.696;13.002;2023-05-07T09:23:38;20.70;93.30
15072;DHT22;7635;56.696;13.002;2023-05-07T09:26:06;20.60;92.50
15072;DHT22;7635;56.696;13.002;2023-05-07T09:28:38;20.40;93.30
15072;DHT22;7635;56.696;13.002;2023-05-07T09:31:06;20.60;93.70
15072;DHT22;7635;56.696;13.002;2023-05-07T09:33:32;20.80;93.10
15072;DHT22;7635;56.696;13.002;2023-05-07T09:36:02;20.50;92.10
15072;DHT22;7635;56.696;13.002;2023-05-07T09:38:30;20.70;92.80
15072;DHT22;7635;56.696;13.002;2023-05-07T09:41:05;20.60;92.70
15072;DHT22;7635;56.696;13.002;2023-05-07T09:43:33;21.00;93.70
15072;DHT22;7635;56.696;13.002;2023-05-07T09:46:03;21.30;93.20
15072;DHT22;7635;56.696;13.002;2023-05-07T09:48:30;21.20;92.10
15072;DHT22;7635;56.696;13.002;2023-05-07T09:51:01;21.00;92.00
15072;DHT22;7635;56.696;13.002;2023-05-07T09:53:29;21.20;92.50
15072;DHT22;7635;56.696;13.002;2023-05-07T09:55:57;21.10;92.30
15072;DHT22;7635;56.696;13.002;2023-05-07T09:58:26;21.30;91.70
15072;DHT22;7635;56.696;13.002;2023-05-07T10:00:53;21.50;93.00
15072;DHT22;7635;56.696;13.002;2023-05-07T10:03:22;21.90;93.40
15072;DHT22;7635;56.696;13.002;2023-05-07T10:05:50;22.20;91.40
15072;DHT22;7635;56.696;13.002;2023-05-07T10:08:18;22.00;91.50
15072;DHT22;7635;56.696;13.002;2023-05-07T10:10:45;21.80;91.60
15072;DHT22;7635;56.696;13.002;2023-05-07T10:13:12;21.60;91.00
15072;DHT22;7635;56.696;13.002;2023-05-07T10:15:41;21.80;91.70
15072;DHT22;7635;56.696;13.002;2023-05-07T10:18:08;22.10;91.10
15072;DHT22;7635;56.696;13.002;2023-05-07T10:20:36;22.40;91.90
15072;DHT22;7635;56.696;13.002;2023-05-07T10:23:04;22.60;91.80
15072;DHT22;7635;56.696;13.002;2023-05-07T10:25:32;22.80;91.90
15072;DHT22;7635;56.696;13.002;2023-05-07T10:28:02;22.80;91.40
15072;DHT22;7635;56.696;13.002;2023-05-07T10:30:38;22.70;90.70
15072;DHT22;7635;56.696;13.002;2023-05-07T10:33:10;22.40;90.60
15072;DHT22;7635;56.696;13.002;2023-05-07T10:35:40;22.10;90.70
15072;DHT22;7635;56.696;13.002;2023-05-07T10:38:08;22.20;90.70
15072;DHT22;7635;56.696;13.002;2023-05-07T10:40:35;22.20;90.30
15072;DHT22;7635;56.696;13.002;2023-05-07T10:43:03;22.20;90.00
15072;DHT22;7635;56.696;13.002;2023-05-07T10:45:31;22.30;91.10
15072;DHT22;7635;56.696;13.002;2023-05-07T10:48:10;22.40;90.40
15072;DHT22;7635;56.696;13.002;2023-05-07T10:50:38;22.20;89.00
15072;DHT22;7635;56.696;13.002;2023-05-07T10:53:24;22.40;89.60
15072;DHT22;7635;56.696;13.002;2023-05-07T10:56:25;22.40;90.20
15072;DHT22;7635;56.696;13.002;2023-05-07T10:58:55;22.50;90.50
15072;DHT22;7635;56.696;13.002;2023-05-07T11:01:50;22.80;90.60
15072;DHT22;7635;56.696;13.002;2023-05-07T11:04:19;23.10;89.00
15072;DHT22;7635;56.696;13.002;2023-05-07T11:07:16;22.80;87.40
15072;DHT22;7635;56.696;13.002;2023-05-07T11:09:57;22.90;89.80
15072;DHT22;7635;56.696;13.002;2023-05-07T11:12:54;23.10;90.40
15072;DHT22;7635;56.696;13.002;2023-05-07T11:15:44;23.20;89.40
15072;DHT22;7635;56.696;13.002;2023-05-07T11:18:15;22.90;89.10
15072;DHT22;7635;56.696;13.002;2023-05-07T11:20:51;22.80;90.50
15072;DHT22;7635;56.696;13.002;2023-05-07T11:26:45;22.80;90.10
15072;DHT22;7635;56.696;13.002;2023-05-07T11:29:14;23.10;90.40
15072;DHT22;7635;56.696;13.002;2023-05-07T11:31:41;23.30;90.10
15072;DHT22;7635;56.696;13.002;2023-05-07T11:34:08;23.30;90.50
15072;DHT22;7635;56.696;13.002;2023-05-07T11:36:41;23.10;89.30
15072;DHT22;7635;56.696;13.002;2023-05-07T11:39:23;22.70;90.00
15072;DHT22;7635;56.696;13.002;2023-05-07T11:41:50;22.60;88.70
15072;DHT22;7635;56.696;13.002;2023-05-07T11:44:17;22.30;88.00
15072;DHT22;7635;56.696;13.002;2023-05-07T11:46:44;22.00;88.10
15072;DHT22;7635;56.696;13.002;2023-05-07T11:49:11;22.10;90.00
15072;DHT22;7635;56.696;13.002;2023-05-07T11:51:39;22.30;87.30
15072;DHT22;7635;56.696;13.002;2023-05-07T11:54:08;22.10;87.10
15072;DHT22;7635;56.696;13.002;2023-05-07T11:56:37;22.00;89.60
15072;DHT22;7635;56.696;13.002;2023-05-07T11:59:04;22.00;87.40
15072;DHT22;7635;56.696;13.002;2023-05-07T12:01:31;22.10;88.00
15072;DHT22;7635;56.696;13.002;2023-05-07T12:03:57;22.40;88.10
15072;DHT22;7635;56.696;13.002;2023-05-07T12:06:24;22.30;87.30
15072;DHT22;7635;56.696;13.002;2023-05-07T12:08:53;22.30;88.50
15072;DHT22;7635;56.696;13.002;2023-05-07T12:11:23;21.90;86.40
15072;DHT22;7635;56.696;13.002;2023-05-07T12:13:51;21.60;87.60
15072;DHT22;7635;56.696;13.002;2023-05-07T12:16:18;21.40;89.10
15072;DHT22;7635;56.696;13.002;2023-05-07T12:18:45;21.40;90.10
15072;DHT22;7635;56.696;13.002;2023-05-07T12:21:12;21.30;89.80
15072;DHT22;7635;56.696;13.002;2023-05-07T12:23:39;21.50;88.50
15072;DHT22;7635;56.696;13.002;2023-05-07T12:26:08;21.30;87.80
15072;DHT22;7635;56.696;13.002;2023-05-07T12:28:38;21.30;87.80
15072;DHT22;7635;56.696;13.002;2023-05-07T12:31:06;21.20;87.50
15072;DHT22;7635;56.696;13.002;2023-05-07T12:33:34;20.90;86.80
15072;DHT22;7635;56.696;13.002;2023-05-07T12:36:04;20.70;88.20
15072;DHT22;7635;56.696;13.002;2023-05-07T12:38:35;20.70;89.10
15072;DHT22;7635;56.696;13.002;2023-05-07T12:41:02;20.60;85.50
15072;DHT22;7635;56.696;13.002;2023-05-07T12:43:30;20.50;86.00
15072;DHT22;7635;56.696;13.002;2023-05-07T12:45:59;20.30;85.70
15072;DHT22;7635;56.696;13.002;2023-05-07T12:48:26;20.30;85.30
15072;DHT22;7635;56.696;13.002;2023-05-07T12:50:54;20.20;87.10
15072;DHT22;7635;56.696;13.002;2023-05-07T12:53:22;20.30;87.80
15072;DHT22;7635;56.696;13.002;2023-05-07T12:55:51;20.20;87.40
15072;DHT22;7635;56.696;13.002;2023-05-07T12:58:19;20.20;88.80
15072;DHT22;7635;56.696;13.002;2023-05-07T13:00:49;20.20;88.90
15072;DHT22;7635;56.696;13.002;2023-05-07T13:03:24;20.00;87.30
15072;DHT22;7635;56.696;13.002;2023-05-07T13:05:51;19.90;87.40
15072;DHT22;7635;56.696;13.002;2023-05-07T13:08:29;20.00;90.00
15072;DHT22;7635;56.696;13.002;2023-05-07T13:10:58;20.00;88.70
15072;DHT22;7635;56.696;13.002;2023-05-07T13:13:25;19.90;88.50
15072;DHT22;7635;56.696;13.002;2023-05-07T13:15:53;19.90;89.40
15072;DHT22;7635;56.696;13.002;2023-05-07T13:18:20;19.90;89.70
15072;DHT22;7635;56.696;13.002;2023-05-07T13:20:46;19.80;90.10
15072;DHT22;7635;56.696;13.002;2023-05-07T13:23:13;19.90;90.00
15072;DHT22;7635;56.696;13.002;2023-05-07T13:25:40;19.80;88.60
15072;DHT22;7635;56.696;13.002;2023-05-07T13:28:06;19.70;90.30
15072;DHT22;7635;56.696;13.002;2023-05-07T13:30:33;19.50;88.50
15072;DHT22;7635;56.696;13.002;2023-05-07T13:33:01;19.40;90.30
15072;DHT22;7635;56.696;13.002;2023-05-07T13:35:28;19.40;91.20
15072;DHT22;7635;56.696;13.002;2023-05-07T13:37:55;19.40;90.20
15072;DHT22;7635;56.696;13.002;2023-05-07T13:40:22;19.40;90.80
15072;DHT22;7635;56.696;13.002;2023-05-07T13:42:49;19.30;90.10
15072;DHT22;7635;56.696;13.002;2023-05-07T13:45:16;19.20;90.30
15072;DHT22;7635;56.696;13.002;2023-05-07T13:47:43;19.20;91.00
15072;DHT22;7635;56.696;13.002;2023-05-07T13:50:11;19.10;90.70
15072;DHT22;7635;56.696;13.002;2023-05-07T13:52:41;19.10;90.50
15072;DHT22;7635;56.696;13.002;2023-05-07T13:55:11;19.00;91.30
15072;DHT22;7635;56.696;13.002;2023-05-07T13:57:38;18.90;91.30
15072;DHT22;7635;56.696;13.002;2023-05-07T14:00:06;18.90;91.30
15072;DHT22;7635;56.696;13.002;2023-05-07T14:02:33;18.80;91.50
15072;DHT22;7635;56.696;13.002;2023-05-07T14:04:59;18.60;91.20
15072;DHT22;7635;56.696;13.002;2023-05-07T14:07:27;18.50;91.30
15072;DHT22;7635;56.696;13.002;2023-05-07T14:09:54;18.50;91.40
15072;DHT22;7635;56.696;13.002;2023-05-07T14:12:21;18.30;91.10
15072;DHT22;7635;56.696;13.002;2023-05-07T14:14:48;18.30;91.80
15072;DHT22;7635;56.696;13.002;2023-05-07T14:17:15;18.30;91.40
15072;DHT22;7635;56.696;13.002;2023-05-07T14:19:42;18.30;91.20
15072;DHT22;7635;56.696;13.002;2023-05-07T14:22:09;18.30;91.70
15072;DHT22;7635;56.696;13.002;2023-05-07T14:24:37;18.20;91.20
15072;DHT22;7635;56.696;13.002;2023-05-07T14:27:05;18.20;91.10
15072;DHT22;7635;56.696;13.002;2023-05-07T14:29:32;18.00;91.20
15072;DHT22;7635;56.696;13.002;2023-05-07T14:32:00;17.90;91.50
15072;DHT22;7635;56.696;13.002;2023-05-07T14:34:27;17.80;91.60
15072;DHT22;7635;56.696;13.002;2023-05-07T14:36:54;17.70;91.70
15072;DHT22;7635;56.696;13.002;2023-05-07T14:39:20;17.80;91.80
15072;DHT22;7635;56.696;13.002;2023-05-07T14:41:48;17.70;92.10
15072;DHT22;7635;56.696;13.002;2023-05-07T14:44:15;17.70;91.60
15072;DHT22;7635;56.696;13.002;2023-05-07T14:46:42;17.70;91.40
15072;DHT22;7635;56.696;13.002;2023-05-07T14:49:08;17.60;91.30
15072;DHT22;7635;56.696;13.002;2023-05-07T14:51:42;17.50;90.90
15072;DHT22;7635;56.696;13.002;2023-05-07T14:54:09;17.50;91.30
15072;DHT22;7635;56.696;13.002;2023-05-07T14:56:35;17.50;92.10
15072;DHT22;7635;56.696;13.002;2023-05-07T14:59:03;17.40;91.10
15072;DHT22;7635;56.696;13.002;2023-05-07T15:01:30;17.30;90.70
15072;DHT22;7635;56.696;13.002;2023-05-07T15:03:57;17.40;91.20
15072;DHT22;7635;56.696;13.002;2023-05-07T15:06:24;17.40;91.00
15072;DHT22;7635;56.696;13.002;2023-05-07T15:08:51;17.40;91.30
15072;DHT22;7635;56.696;13.002;2023-05-07T15:11:18;17.30;91.60
15072;DHT22;7635;56.696;13.002;2023-05-07T15:13:45;17.30;91.40
15072;DHT22;7635;56.696;13.002;2023-05-07T15:16:13;17.10;90.70
15072;DHT22;7635;56.696;13.002;2023-05-07T15:18:40;17.00;90.60
15072;DHT22;7635;56.696;13.002;2023-05-07T15:21:06;17.00;91.10
15072;DHT22;7635;56.696;13.002;2023-05-07T15:23:33;17.00;91.10
15072;DHT22;7635;56.696;13.002;2023-05-07T15:26:00;17.00;91.60
15072;DHT22;7635;56.696;13.002;2023-05-07T15:28:27;16.90;91.60
15072;DHT22;7635;56.696;13.002;2023-05-07T15:30:54;16.90;91.90
15072;DHT22;7635;56.696;13.002;2023-05-07T15:33:23;16.90;91.90
15072;DHT22;7635;56.696;13.002;2023-05-07T15:35:50;16.90;92.10
15072;DHT22;7635;56.696;13.002;2023-05-07T15:38:16;16.90;92.00
15072;DHT22;7635;56.696;13.002;2023-05-07T15:40:43;16.80;92.30
15072;DHT22;7635;56.696;13.002;2023-05-07T15:43:10;16.80;92.30
15072;DHT22;7635;56.696;13.002;2023-05-07T15:45:39;16.70;92.30